Time;durP1;ratioP1;P1;durP2;ratioP2;P2;SDS_P1;SDS_P2;PMS_P1;PMS_P2;Temp;Humidity;BMP_temperature;BMP_pressure;BME280_temperature;BME280_humidity;BME280_pressure;Samples;Min_cycle;Max_cycle;Signal;HPM_P1;HPM_P2
2023/03/13 00:00:05;;;;;;;5.47;2.80;;;;;;;6.73;42.75;100062.63;3169674;28;20530;-67
2023/03/13 00:01:38;;;;;;;8.32;3.00;;;;;;;6.61;42.82;100044.81;3164300;28;20526;-63
2023/03/13 00:03:09;;;;;;;7.03;2.80;;;;;;;6.68;42.76;100056.72;3170098;28;20063;-65
2023/03/13 00:04:41;;;;;;;7.07;3.10;;;;;;;6.67;42.84;100056.75;3170722;28;20047;-63
2023/03/13 00:06:15;;;;;;;5.88;2.70;;;;;;;6.66;43.05;100052.47;3169659;28;20044;-66
2023/03/13 00:07:46;;;;;;;;;;;;;;;6.62;42.81;100056.88;3169945;28;20051;-66
2023/03/13 00:09:18;;;;;;;6.93;2.63;;;;;;;6.60;42.89;100059.50;3169891;28;20288;-63
2023/03/13 00:10:49;;;;;;;5.70;2.63;;;;;;;6.63;43.00;100049.97;3170505;28;20083;-63
2023/03/13 00:12:21;;;;;;;5.90;2.90;;;;;;;6.63;43.08;100057.75;3169791;28;20051;-63
2023/03/13 00:13:53;;;;;;;3.88;2.30;;;;;;;6.63;43.06;100057.75;3170364;28;20047;-66
2023/03/13 00:15:25;;;;;;;5.95;2.47;;;;;;;6.61;43.02;100061.19;3168641;28;20047;-67
2023/03/13 00:16:58;;;;;;;6.45;2.88;;;;;;;6.59;43.02;100060.38;3170079;28;20047;-66
2023/03/13 00:18:29;;;;;;;6.50;2.78;;;;;;;6.60;43.09;100058.66;3170223;28;20047;-66
2023/03/13 00:20:01;;;;;;;6.63;3.50;;;;;;;6.59;43.08;100062.97;3170224;28;20051;-65
2023/03/13 00:21:36;;;;;;;5.15;2.70;;;;;;;6.05;42.97;99977.22;3170296;28;20055;-65
2023/03/13 00:23:08;;;;;;;5.88;2.17;;;;;;;6.57;43.05;100063.91;3170150;28;20047;-64
2023/03/13 00:24:40;;;;;;;4.50;2.22;;;;;;;6.51;42.99;100056.31;3170442;28;20051;-66
2023/03/13 00:26:12;;;;;;;4.70;2.30;;;;;;;6.55;42.96;100063.09;3170022;28;20051;-63
2023/03/13 00:27:44;;;;;;;4.83;2.77;;;;;;;6.35;42.86;100032.53;3170271;28;20054;-62
2023/03/13 00:29:16;;;;;;;4.30;2.33;;;;;;;6.44;42.90;100053.00;3169728;28;20305;-63
2023/03/13 00:30:48;;;;;;;4.40;2.35;;;;;;;6.51;42.79;100057.16;3169383;28;20043;-64
2023/03/13 00:32:19;;;;;;;4.72;2.63;;;;;;;6.52;42.75;100065.75;3169766;28;20050;-64
2023/03/13 00:33:53;;;;;;;6.38;2.40;;;;;;;6.35;42.75;100033.38;3170070;28;20078;-61
2023/03/13 00:35:25;;;;;;;6.00;2.10;;;;;;;6.47;42.77;100058.09;3169853;28;20900;-62
2023/03/13 00:36:59;;;;;;;6.00;2.38;;;;;;;6.43;42.85;100056.47;3168866;28;20104;-62
2023/03/13 00:38:30;;;;;;;5.70;2.50;;;;;;;6.38;42.84;100045.38;3170234;28;20063;-62
2023/03/13 00:40:02;;;;;;;4.90;2.60;;;;;;;6.45;42.80;100057.31;3169927;28;20051;-62
2023/03/13 00:41:36;;;;;;;4.05;2.55;;;;;;;6.37;42.77;100041.09;3169927;28;20043;-62
2023/03/13 00:43:08;;;;;;;4.43;2.10;;;;;;;6.46;42.87;100056.41;3169952;28;20449;-62
2023/03/13 00:44:40;;;;;;;5.57;2.70;;;;;;;6.47;42.86;100046.91;3170074;28;20048;-62
2023/03/13 00:46:13;;;;;;;6.07;2.40;;;;;;;6.44;42.90;100039.22;3169966;28;20059;-63
2023/03/13 00:47:45;;;;;;;4.47;2.80;;;;;;;6.41;42.80;100040.13;3169726;28;20543;-62
2023/03/13 00:49:17;;;;;;;3.90;2.50;;;;;;;6.27;42.95;100011.16;3169379;28;20051;-63
2023/03/13 00:50:48;;;;;;;5.10;3.10;;;;;;;6.48;42.74;100052.06;3169922;28;20482;-62
2023/03/13 00:52:22;;;;;;;6.70;2.92;;;;;;;6.34;42.74;100023.91;3169914;28;20063;-62
2023/03/13 00:53:54;;;;;;;5.35;2.85;;;;;;;6.46;42.78;100042.63;3169898;28;20533;-62
2023/03/13 00:55:25;;;;;;;4.45;2.65;;;;;;;6.48;42.77;100052.06;3169891;28;20443;-62
2023/03/13 00:56:56;;;;;;;4.32;2.67;;;;;;;6.47;43.02;100050.31;3170317;28;20048;-63
2023/03/13 00:58:29;;;;;;;4.57;2.50;;;;;;;6.45;42.87;100046.94;3169782;28;20444;-62
2023/03/13 01:00:01;;;;;;;5.65;2.88;;;;;;;6.41;42.77;100050.47;3169850;28;20442;-62
2023/03/13 01:01:34;;;;;;;5.10;2.88;;;;;;;6.38;43.09;100043.63;3159721;28;20134;-63
2023/03/13 01:03:05;;;;;;;5.55;2.47;;;;;;;6.37;42.87;100052.28;3167064;28;20436;-61
2023/03/13 01:04:36;;;;;;;5.25;2.65;;;;;;;6.20;43.01;100017.38;3169822;28;20123;-61
2023/03/13 01:06:09;;;;;;;5.68;2.75;;;;;;;5.89;43.11;99979.28;3168950;28;20052;-62
2023/03/13 01:07:42;;;;;;;6.47;2.92;;;;;;;6.27;43.10;100044.78;3169476;28;20513;-61
2023/03/13 01:09:16;;;;;;;4.38;2.45;;;;;;;6.22;43.29;100041.47;3169774;28;20056;-61
2023/03/13 01:10:47;;;;;;;;;;;;;;;6.13;43.15;100047.72;3170156;28;20104;-62
2023/03/13 01:12:19;;;;;;;5.35;2.90;;;;;;;5.93;43.39;100025.72;3169269;28;19923;-62
2023/03/13 01:13:54;;;;;;;5.10;2.70;;;;;;;6.06;43.31;100047.00;3169546;28;20047;-61
2023/03/13 01:15:25;;;;;;;5.20;2.95;;;;;;;6.00;43.43;100036.78;3169826;28;20448;-61
2023/03/13 01:16:57;;;;;;;5.95;2.95;;;;;;;6.02;43.42;100044.50;3169721;28;20050;-62
2023/03/13 01:18:28;;;;;;;7.30;2.53;;;;;;;5.93;43.47;100032.63;3169655;28;20051;-62
2023/03/13 01:19:59;;;;;;;5.78;2.72;;;;;;;5.96;43.56;100042.91;3169112;28;20060;-62
2023/03/13 01:21:32;;;;;;;8.23;3.10;;;;;;;5.90;43.68;100038.69;3169674;28;20427;-62
2023/03/13 01:23:04;;;;;;;5.28;2.75;;;;;;;5.85;43.71;100047.44;3169291;28;20056;-62
2023/03/13 01:24:36;;;;;;;9.25;3.20;;;;;;;5.40;43.92;99980.38;3169605;28;20523;-62
2023/03/13 01:26:07;;;;;;;6.63;2.78;;;;;;;5.78;43.84;100059.63;3169490;28;20055;-63
2023/03/13 01:27:39;;;;;;;4.88;2.85;;;;;;;5.76;43.97;100052.81;3169630;28;20046;-62
2023/03/13 01:29:11;;;;;;;4.43;2.58;;;;;;;5.74;44.02;100055.44;3169354;28;20043;-62
2023/03/13 01:30:43;;;;;;;5.00;2.72;;;;;;;5.74;43.99;100051.97;3169859;28;20527;-62
2023/03/13 01:32:15;;;;;;;5.78;3.10;;;;;;;5.73;43.84;100052.88;3169803;28;20051;-62
2023/03/13 01:33:48;;;;;;;5.22;2.35;;;;;;;5.72;43.96;100053.75;3169597;28;20482;-61
2023/03/13 01:35:20;;;;;;;;;;;;;;;5.66;43.90;100053.00;3170264;28;20051;-61
2023/03/13 01:36:52;;;;;;;6.95;3.13;;;;;;;5.36;44.11;100020.06;3169318;28;19919;-64
2023/03/13 01:38:24;;;;;;;6.72;3.40;;;;;;;5.61;44.04;100062.56;3169823;28;20154;-64
2023/03/13 01:39:56;;;;;;;5.57;3.38;;;;;;;5.62;44.07;100069.47;3169553;28;20052;-64
2023/03/13 01:41:29;;;;;;;7.35;2.95;;;;;;;5.54;44.17;100057.56;3169733;28;20047;-63
2023/03/13 01:43:01;;;;;;;7.90;3.63;;;;;;;5.52;44.15;100051.59;3169559;28;20039;-64
2023/03/13 01:44:50;;;;;;;6.45;3.70;;;;;;;5.13;44.11;100003.28;3169716;28;20055;-64
2023/03/13 01:46:23;;;;;;;8.20;3.25;;;;;;;5.56;44.51;100067.00;3171147;28;20096;-64
2023/03/13 01:47:54;;;;;;;5.88;3.88;;;;;;;5.56;44.33;100071.28;3171931;28;20098;-63
2023/03/13 01:49:32;;;;;;;7.05;3.60;;;;;;;5.53;44.60;100077.41;3172111;28;20055;-64
2023/03/13 01:51:07;;;;;;;5.20;2.78;;;;;;;5.47;44.64;100078.38;3172359;28;20043;-62
2023/03/13 01:52:38;;;;;;;9.18;3.50;;;;;;;5.43;44.71;100075.84;3171796;28;20100;-62
2023/03/13 01:54:15;;;;;;;5.70;3.33;;;;;;;5.38;45.04;100077.69;3171868;28;20051;-62
2023/03/13 01:55:46;;;;;;;6.50;3.67;;;;;;;5.36;45.10;100072.56;3171928;28;20062;-62
2023/03/13 01:57:23;;;;;;;6.50;3.60;;;;;;;5.31;45.16;100076.09;3172339;28;20047;-62
2023/03/13 01:58:58;;;;;;;9.50;3.22;;;;;;;5.24;45.24;100083.97;3171942;28;20078;-64
2023/03/13 02:00:32;;;;;;;6.15;3.45;;;;;;;5.18;45.41;100081.50;3170742;28;20051;-62
2023/03/13 02:02:05;;;;;;;7.00;3.35;;;;;;;5.00;45.52;100059.47;3168607;28;20573;-62
2023/03/13 02:03:38;;;;;;;9.82;4.57;;;;;;;5.14;45.50;100087.59;3172001;28;20112;-63
2023/03/13 02:05:10;;;;;;;9.50;3.63;;;;;;;5.07;45.62;100080.84;3171710;28;20075;-62
2023/03/13 02:06:47;;;;;;;6.68;3.75;;;;;;;4.74;45.35;100028.13;3171732;28;20056;-62
2023/03/13 02:08:22;;;;;;;6.35;3.38;;;;;;;5.13;45.48;100090.22;3171638;28;20054;-62
2023/03/13 02:09:57;;;;;;;7.65;3.47;;;;;;;5.12;45.55;100091.09;3162546;28;20092;-62
2023/03/13 02:11:38;;;;;;;8.30;3.67;;;;;;;4.37;45.59;99977.16;3171721;27;20576;-62
2023/03/13 02:13:13;;;;;;;7.18;3.92;;;;;;;5.08;45.50;100100.59;3171618;28;20109;-62
2023/03/13 02:14:49;;;;;;;7.18;3.28;;;;;;;5.02;45.72;100092.97;3168382;28;20506;-62
2023/03/13 02:16:22;;;;;;;6.47;3.80;;;;;;;5.01;45.66;100099.03;3162279;28;20047;-62
2023/03/13 02:17:55;;;;;;;6.93;3.75;;;;;;;5.05;45.77;100110.13;3172063;28;20081;-62
2023/03/13 02:19:33;;;;;;;5.35;3.25;;;;;;;5.02;45.73;100106.72;3171709;28;20052;-62
2023/03/13 02:21:15;;;;;;;7.78;3.60;;;;;;;5.06;45.74;100114.41;3171393;28;20984;-62
2023/03/13 02:22:54;;;;;;;7.57;3.60;;;;;;;4.99;45.77;100100.78;3171488;28;20063;-62
2023/03/13 02:24:33;;;;;;;7.13;3.58;;;;;;;4.98;45.84;100105.09;3171656;28;20051;-62
2023/03/13 02:26:07;;;;;;;7.15;3.30;;;;;;;5.06;45.82;100114.41;3171488;28;20063;-62
2023/03/13 02:27:38;;;;;;;7.80;3.75;;;;;;;5.04;45.86;100119.63;3171345;28;20037;-62
2023/03/13 02:29:17;;;;;;;7.53;3.08;;;;;;;4.82;45.90;100087.31;3171525;27;20537;-62
2023/03/13 02:30:51;;;;;;;7.78;3.75;;;;;;;4.13;45.73;99991.31;3171916;28;20052;-62
2023/03/13 02:32:24;;;;;;;5.43;2.85;;;;;;;4.99;45.97;100124.84;3171917;28;20207;-64
2023/03/13 02:33:58;;;;;;;6.00;3.07;;;;;;;4.99;46.00;100129.16;3159055;28;20054;-62
2023/03/13 02:35:30;;;;;;;7.75;3.40;;;;;;;4.99;46.16;100127.44;3171300;28;21090;-62
2023/03/13 02:37:05;;;;;;;5.93;3.00;;;;;;;5.00;46.08;100133.47;3170885;28;20048;-62
2023/03/13 02:38:42;;;;;;;5.03;2.92;;;;;;;4.96;46.06;100129.22;3171624;28;20048;-62
2023/03/13 02:40:17;;;;;;;5.68;2.92;;;;;;;5.01;46.12;100130.00;3171383;28;20051;-62
2023/03/13 02:41:52;;;;;;;6.90;3.22;;;;;;;5.00;46.04;100136.06;3168667;28;20039;-62
2023/03/13 02:43:27;;;;;;;8.63;3.30;;;;;;;4.56;45.95;100068.81;3169482;28;20101;-62
2023/03/13 02:44:59;;;;;;;7.05;3.40;;;;;;;5.01;46.02;100140.31;3171255;28;20039;-63
2023/03/13 02:46:31;;;;;;;6.72;3.20;;;;;;;4.97;45.98;100138.69;3171335;28;20385;-62
2023/03/13 02:48:02;;;;;;;5.95;2.97;;;;;;;5.02;46.01;100147.19;3171220;28;20059;-62
2023/03/13 02:49:34;;;;;;;7.80;3.35;;;;;;;5.02;45.93;100155.75;3171395;27;20047;-62
2023/03/13 02:51:13;;;;;;;6.85;3.72;;;;;;;4.96;46.10;100148.13;3171100;28;20056;-62
2023/03/13 02:52:49;;;;;;;4.93;3.30;;;;;;;3.97;46.04;99988.13;3171363;28;20138;-62
2023/03/13 02:54:24;;;;;;;5.95;3.75;;;;;;;4.97;46.06;100157.59;3171140;28;20435;-64
2023/03/13 02:55:55;;;;;;;8.80;4.03;;;;;;;4.95;46.26;100158.50;3170937;28;20051;-63
2023/03/13 02:57:28;;;;;;;6.20;3.88;;;;;;;4.81;46.14;100145.81;3171462;28;20050;-62
2023/03/13 02:59:00;;;;;;;;;;;;;;;4.83;46.11;100159.53;3171509;28;20051;-62
2023/03/13 03:00:32;;;;;;;9.55;4.30;;;;;;;4.81;46.24;100165.59;3169625;28;19927;-62
2023/03/13 03:02:04;;;;;;;8.45;4.47;;;;;;;4.80;46.37;100164.75;3162539;28;20058;-62
2023/03/13 03:03:35;;;;;;;7.97;4.32;;;;;;;4.74;46.46;100160.53;3171091;28;20044;-63
2023/03/13 03:05:08;;;;;;;6.93;3.70;;;;;;;4.71;46.43;100163.16;3170860;28;20048;-62
2023/03/13 03:06:40;;;;;;;9.20;4.82;;;;;;;4.66;46.43;100164.97;3171012;28;20047;-62
2023/03/13 03:08:11;;;;;;;7.68;4.55;;;;;;;4.62;46.66;100168.47;3171192;28;20048;-62
2023/03/13 03:09:42;;;;;;;8.20;4.43;;;;;;;4.50;46.61;100158.34;3171135;28;20147;-62
2023/03/13 03:11:13;;;;;;;8.07;4.22;;;;;;;4.41;46.83;100155.88;3162109;28;20040;-62
2023/03/13 03:12:47;;;;;;;9.00;4.65;;;;;;;4.42;47.14;100183.38;3170808;28;20051;-62
2023/03/13 03:14:19;;;;;;;8.35;4.72;;;;;;;4.27;47.15;100169.81;3171259;28;20054;-62
2023/03/13 03:15:51;;;;;;;8.45;4.05;;;;;;;4.26;47.48;100177.56;3171131;28;20048;-62
2023/03/13 03:17:23;;;;;;;8.07;4.75;;;;;;;4.27;47.48;100187.88;3170797;28;20043;-62
2023/03/13 03:18:54;;;;;;;7.35;4.43;;;;;;;4.24;47.55;100189.63;3170748;28;20452;-62
2023/03/13 03:20:26;;;;;;;7.88;4.40;;;;;;;3.94;47.52;100149.66;3171154;27;20108;-63
2023/03/13 03:21:57;;;;;;;8.02;4.30;;;;;;;4.15;47.76;100190.59;3170114;28;20116;-63
2023/03/13 03:23:29;;;;;;;9.80;4.30;;;;;;;4.12;47.68;100192.38;3170765;28;20056;-62
2023/03/13 03:25:01;;;;;;;10.13;4.70;;;;;;;4.08;47.92;100202.72;3171182;28;20481;-63
2023/03/13 03:26:33;;;;;;;9.35;4.75;;;;;;;4.07;48.07;100206.16;3170660;28;20135;-63
2023/03/13 03:28:06;;;;;;;9.63;4.50;;;;;;;4.08;48.08;100219.88;3170529;28;20127;-62
2023/03/13 03:29:38;;;;;;;;;;;;;;;4.00;47.84;100219.16;3171449;28;20079;-62
2023/03/13 03:31:11;;;;;;;8.02;4.10;;;;;;;3.80;47.98;100191.88;3170961;28;19920;-62
2023/03/13 03:32:42;;;;;;;8.05;4.60;;;;;;;3.96;48.06;100228.59;3170651;28;20047;-62
2023/03/13 03:34:14;;;;;;;8.65;4.50;;;;;;;3.93;48.23;100225.22;3170822;28;20047;-62
2023/03/13 03:35:46;;;;;;;6.95;4.20;;;;;;;3.97;48.08;100243.22;3170479;28;20047;-63
2023/03/13 03:37:17;;;;;;;8.52;4.65;;;;;;;3.99;47.92;100235.44;3170944;28;20101;-64
2023/03/13 03:38:49;;;;;;;7.80;4.50;;;;;;;3.99;48.01;100232.88;3170063;28;20136;-63
2023/03/13 03:40:21;;;;;;;9.98;4.95;;;;;;;3.92;48.13;100228.69;3170541;28;20381;-62
2023/03/13 03:41:52;;;;;;;8.23;4.97;;;;;;;3.95;48.09;100241.53;3170544;28;20055;-62
2023/03/13 03:43:26;;;;;;;8.02;5.15;;;;;;;3.94;48.14;100244.97;3171099;28;20052;-62
2023/03/13 03:44:57;;;;;;;7.28;4.20;;;;;;;3.81;48.08;100224.47;3170654;28;20052;-62
2023/03/13 03:46:29;;;;;;;9.05;4.75;;;;;;;3.87;48.23;100242.47;3170615;28;20044;-62
2023/03/13 03:48:01;;;;;;;9.85;5.07;;;;;;;3.90;48.22;100248.44;3170479;28;20382;-62
2023/03/13 03:49:32;;;;;;;10.45;4.80;;;;;;;3.88;48.15;100251.91;3170984;28;20047;-62
2023/03/13 03:51:04;;;;;;;8.40;4.50;;;;;;;3.79;48.29;100240.84;3170107;28;20047;-62
2023/03/13 03:52:36;;;;;;;7.67;5.10;;;;;;;3.77;48.40;100238.28;3170555;27;20112;-62
2023/03/13 03:54:08;;;;;;;11.32;5.95;;;;;;;3.79;48.51;100243.44;3170486;28;20052;-62
2023/03/13 03:55:39;;;;;;;8.52;4.70;;;;;;;3.75;48.57;100247.72;3169962;28;20047;-62
2023/03/13 03:57:11;;;;;;;11.15;4.93;;;;;;;3.78;48.52;100247.69;3170438;28;20373;-62
2023/03/13 03:58:45;;;;;;;7.93;4.65;;;;;;;3.73;48.42;100241.75;3170458;28;20055;-62
2023/03/13 04:00:18;;;;;;;;;;;;;;;3.72;48.43;100252.06;3170768;28;20488;-63
2023/03/13 04:01:49;;;;;;;10.23;4.90;;;;;;;3.70;48.45;100252.09;3159711;28;20038;-63
2023/03/13 04:03:21;;;;;;;10.25;4.57;;;;;;;3.65;48.52;100249.56;3170424;28;20192;-65
2023/03/13 04:04:52;;;;;;;12.38;5.18;;;;;;;3.62;48.72;100239.28;3170242;28;20056;-63
2023/03/13 04:06:24;;;;;;;8.15;4.40;;;;;;;3.53;48.66;100230.81;3170607;28;20487;-63
2023/03/13 04:07:56;;;;;;;8.02;4.80;;;;;;;3.66;48.72;100255.56;3169165;28;20052;-63
2023/03/13 04:09:28;;;;;;;10.27;5.03;;;;;;;3.58;48.76;100253.06;3169899;28;20055;-63
2023/03/13 04:11:00;;;;;;;13.88;5.03;;;;;;;3.65;48.92;100266.72;3170154;28;20051;-63
2023/03/13 04:12:32;;;;;;;10.52;5.10;;;;;;;3.63;48.83;100268.47;3170106;28;20047;-62
2023/03/13 04:14:05;;;;;;;11.60;4.60;;;;;;;3.57;48.80;100271.09;3170041;28;20059;-62
2023/03/13 04:15:38;;;;;;;10.25;5.00;;;;;;;3.56;48.94;100266.81;3170171;28;20477;-62
2023/03/13 04:17:10;;;;;;;10.07;5.20;;;;;;;3.52;48.93;100275.41;3170206;28;20413;-62
2023/03/13 04:18:41;;;;;;;9.77;5.38;;;;;;;3.46;49.02;100272.91;3170166;28;20054;-63
2023/03/13 04:20:13;;;;;;;9.65;5.07;;;;;;;3.42;49.03;100274.66;3170307;28;20051;-62
2023/03/13 04:21:44;;;;;;;10.00;5.47;;;;;;;3.34;49.15;100269.59;3169842;28;20062;-62
2023/03/13 04:23:16;;;;;;;9.90;5.25;;;;;;;3.29;49.33;100273.91;3170076;28;20051;-63
2023/03/13 04:24:48;;;;;;;10.93;5.35;;;;;;;3.30;49.41;100282.47;3169874;28;20416;-62
2023/03/13 04:26:19;;;;;;;10.90;5.50;;;;;;;3.09;49.48;100253.47;3169967;28;20058;-62
2023/03/13 04:27:51;;;;;;;12.80;5.43;;;;;;;2.70;49.41;100198.00;3169871;28;20716;-64
2023/03/13 04:29:24;;;;;;;10.18;5.10;;;;;;;3.21;49.59;100282.56;3170426;28;20052;-62
2023/03/13 04:30:57;;;;;;;11.10;5.50;;;;;;;3.19;49.76;100283.44;3169968;28;20532;-63
2023/03/13 04:32:28;;;;;;;9.70;5.70;;;;;;;3.18;49.75;100289.44;3169630;28;20355;-61
2023/03/13 04:34:00;;;;;;;8.30;4.15;;;;;;;3.16;50.30;100290.28;3169557;28;20052;-61
2023/03/13 04:35:31;;;;;;;9.63;4.95;;;;;;;3.15;49.98;100286.03;3157567;28;20048;-61
2023/03/13 04:37:03;;;;;;;9.48;5.57;;;;;;;3.16;50.01;100295.44;3169912;28;20059;-62
2023/03/13 04:38:35;;;;;;;9.30;4.95;;;;;;;3.08;50.25;100292.94;3169663;28;20058;-62
2023/03/13 04:40:08;;;;;;;12.05;5.95;;;;;;;2.87;50.07;100264.75;3169802;28;20154;-62
2023/03/13 04:41:39;;;;;;;12.93;5.00;;;;;;;3.05;50.28;100302.41;3170061;28;20043;-61
2023/03/13 04:43:11;;;;;;;10.07;5.13;;;;;;;3.10;50.22;100316.06;3169933;28;20051;-62
2023/03/13 04:44:44;;;;;;;9.82;5.35;;;;;;;2.91;50.26;100287.88;3170012;28;20043;-62
2023/03/13 04:46:17;;;;;;;8.35;4.88;;;;;;;3.06;50.38;100324.69;3169904;28;20055;-62
2023/03/13 04:47:49;;;;;;;8.65;4.78;;;;;;;3.06;50.46;100319.53;3169945;28;20482;-62
2023/03/13 04:49:20;;;;;;;11.48;4.93;;;;;;;3.02;50.64;100316.13;3163650;28;20051;-62
2023/03/13 04:50:52;;;;;;;11.27;5.82;;;;;;;3.06;50.49;100333.25;3169528;28;20063;-62
2023/03/13 04:52:24;;;;;;;15.00;5.53;;;;;;;3.07;50.59;100322.09;3170085;28;20043;-63
2023/03/13 04:53:56;;;;;;;15.07;5.68;;;;;;;3.04;50.72;100316.97;3169559;28;20062;-63
2023/03/13 04:55:28;;;;;;;13.63;5.97;;;;;;;3.09;50.84;100324.66;3169683;28;20099;-63
2023/03/13 04:57:00;;;;;;;12.23;6.13;;;;;;;3.09;50.94;100327.25;3169827;28;20047;-63
2023/03/13 04:58:31;;;;;;;14.57;6.78;;;;;;;3.09;51.02;100322.09;3169951;28;20039;-63
2023/03/13 05:00:07;;;;;;;12.25;6.13;;;;;;;3.08;50.94;100322.97;3169634;28;20059;-63
2023/03/13 05:01:39;;;;;;;14.93;5.88;;;;;;;3.14;51.02;100328.94;3160070;28;20497;-63
2023/03/13 05:03:11;;;;;;;10.43;5.43;;;;;;;2.98;51.00;100296.41;3169716;28;20060;-63
2023/03/13 05:04:43;;;;;;;10.05;5.40;;;;;;;3.22;51.13;100333.16;3170005;28;20783;-63
2023/03/13 05:06:15;;;;;;;12.85;5.18;;;;;;;3.23;51.12;100332.31;3163130;28;20666;-63
2023/03/13 05:07:47;;;;;;;11.60;5.13;;;;;;;3.24;51.04;100344.31;3169489;28;20076;-65
2023/03/13 05:09:18;;;;;;;10.65;5.10;;;;;;;3.06;51.13;100304.09;3169453;28;20051;-63
2023/03/13 05:10:50;;;;;;;10.10;5.45;;;;;;;3.27;50.94;100341.72;3169046;28;20052;-64
2023/03/13 05:12:22;;;;;;;11.88;5.40;;;;;;;3.20;51.13;100333.19;3168980;28;20251;-63
2023/03/13 05:13:53;;;;;;;9.65;4.80;;;;;;;3.31;51.16;100345.97;3169294;28;20054;-63
2023/03/13 05:15:26;;;;;;;9.02;4.72;;;;;;;3.32;51.15;100348.53;3169996;28;20047;-63
2023/03/13 05:16:58;;;;;;;12.82;5.35;;;;;;;3.12;51.05;100315.19;3160087;28;20048;-63
2023/03/13 05:18:29;;;;;;;10.23;4.43;;;;;;;3.33;51.20;100352.81;3169116;28;20048;-63
2023/03/13 05:20:01;;;;;;;10.63;4.55;;;;;;;3.26;51.24;100353.72;3169896;28;20048;-62
2023/03/13 05:21:33;;;;;;;8.75;4.57;;;;;;;3.32;51.00;100363.97;3169619;28;20046;-62
2023/03/13 05:23:04;;;;;;;14.25;5.70;;;;;;;3.32;51.19;100360.56;3169124;28;20191;-63
2023/03/13 05:24:36;;;;;;;10.73;5.10;;;;;;;3.24;51.29;100350.31;3169788;28;20069;-62
2023/03/13 05:26:07;;;;;;;9.20;4.82;;;;;;;3.29;51.37;100363.16;3169496;28;20055;-62
2023/03/13 05:27:39;;;;;;;8.05;4.35;;;;;;;3.29;51.22;100364.00;3169150;28;20052;-62
2023/03/13 05:29:11;;;;;;;10.95;4.93;;;;;;;3.02;51.09;100317.84;3169330;28;20052;-65
2023/03/13 05:30:44;;;;;;;12.75;4.97;;;;;;;3.17;51.12;100343.50;3168873;28;20062;-62
2023/03/13 05:32:16;;;;;;;9.23;5.07;;;;;;;3.34;51.28;100369.09;3169193;28;20059;-62
2023/03/13 05:33:48;;;;;;;13.02;5.28;;;;;;;3.35;51.16;100373.41;3169913;28;20097;-62
2023/03/13 05:35:20;;;;;;;13.98;5.57;;;;;;;3.37;51.11;100374.22;3169401;28;20483;-63
2023/03/13 05:36:52;;;;;;;8.65;5.03;;;;;;;3.06;51.19;100314.41;3169321;28;20048;-62
2023/03/13 05:38:23;;;;;;;10.45;5.53;;;;;;;3.41;51.10;100370.78;3169538;28;20056;-62
2023/03/13 05:39:54;;;;;;;10.73;5.18;;;;;;;3.39;51.05;100369.94;3169815;28;20064;-62
2023/03/13 05:41:26;;;;;;;12.80;5.05;;;;;;;3.44;50.98;100380.22;3169404;28;20534;-63
2023/03/13 05:42:58;;;;;;;9.95;5.15;;;;;;;3.35;51.05;100369.13;3169432;28;20074;-62
2023/03/13 05:44:30;;;;;;;10.40;5.03;;;;;;;2.85;51.20;100289.66;3169417;28;20077;-63
2023/03/13 05:46:03;;;;;;;11.23;5.43;;;;;;;3.40;51.33;100384.50;3169057;28;20047;-63
2023/03/13 05:47:34;;;;;;;15.63;5.97;;;;;;;3.40;51.36;100389.66;3169364;28;20531;-62
2023/03/13 05:49:06;;;;;;;11.98;6.05;;;;;;;2.65;51.32;100272.59;3168827;28;20048;-63
2023/03/13 05:50:38;;;;;;;12.80;5.80;;;;;;;3.41;51.20;100389.66;3169376;28;20409;-64
2023/03/13 05:52:10;;;;;;;10.05;4.72;;;;;;;3.37;51.37;100385.41;3163347;28;20059;-62
2023/03/13 05:53:42;;;;;;;13.15;5.68;;;;;;;3.46;51.16;100388.75;3168948;28;20551;-62
2023/03/13 05:55:14;;;;;;;12.32;5.20;;;;;;;3.48;51.25;100399.91;3169399;28;20425;-64
2023/03/13 05:56:47;;;;;;;14.77;5.53;;;;;;;3.50;51.07;100401.63;3169340;28;20050;-63
2023/03/13 05:58:19;;;;;;;9.77;5.20;;;;;;;3.53;51.11;100398.19;3169376;28;20044;-62
2023/03/13 05:59:51;;;;;;;13.70;5.68;;;;;;;3.57;50.93;100399.84;3169287;28;20101;-63
2023/03/13 06:01:24;;;;;;;16.55;5.35;;;;;;;3.59;51.00;100401.56;3167857;28;20558;-63
2023/03/13 06:02:56;;;;;;;15.07;5.68;;;;;;;3.61;50.91;100405.00;3169675;28;20093;-64
2023/03/13 06:04:28;;;;;;;14.23;5.72;;;;;;;3.64;50.89;100401.53;3168528;28;20458;-62
2023/03/13 06:06:00;;;;;;;10.98;5.88;;;;;;;3.68;50.90;100402.38;3169153;28;20051;-62
2023/03/13 06:07:32;;;;;;;11.50;5.30;;;;;;;3.25;50.76;100322.84;3167584;28;20044;-64
2023/03/13 06:09:04;;;;;;;10.60;5.28;;;;;;;3.77;50.79;100405.72;3169171;28;20048;-61
2023/03/13 06:10:36;;;;;;;10.18;6.53;;;;;;;3.78;50.72;100397.09;3168876;28;20056;-62
2023/03/13 06:12:09;;;;;;;10.65;5.13;;;;;;;3.78;50.54;100391.13;3168684;28;20062;-62
2023/03/13 06:13:41;;;;;;;13.15;4.47;;;;;;;3.95;50.45;100403.88;3169396;28;20043;-61
2023/03/13 06:15:12;;;;;;;10.30;5.07;;;;;;;4.02;50.37;100410.66;3161474;28;20048;-62
2023/03/13 06:16:46;;;;;;;11.68;5.18;;;;;;;4.11;50.09;100410.59;3169214;28;20052;-64
2023/03/13 06:18:17;;;;;;;8.48;5.22;;;;;;;4.19;50.07;100401.06;3168716;28;20043;-62
2023/03/13 06:19:49;;;;;;;9.98;4.72;;;;;;;4.30;49.94;100400.97;3169389;28;20043;-61
2023/03/13 06:21:21;;;;;;;9.00;5.35;;;;;;;4.21;49.83;100368.41;3168693;28;20055;-65
2023/03/13 06:22:53;;;;;;;11.80;4.75;;;;;;;4.50;49.72;100400.78;3168511;28;20120;-63
2023/03/13 06:24:25;;;;;;;11.52;4.93;;;;;;;4.62;49.37;100400.63;3169314;28;20059;-63
2023/03/13 06:25:57;;;;;;;11.45;5.57;;;;;;;4.84;49.23;100415.84;3169770;28;20075;-64
2023/03/13 06:27:28;;;;;;;11.18;4.65;;;;;;;4.93;48.92;100405.41;3168706;28;20059;-65
2023/03/13 06:29:00;;;;;;;14.93;4.97;;;;;;;5.04;48.79;100393.25;3169523;28;20047;-66
2023/03/13 06:30:32;;;;;;;13.15;5.03;;;;;;;5.32;48.78;100398.03;3169157;28;20130;-65
2023/03/13 06:32:06;;;;;;;8.93;4.80;;;;;;;5.67;48.58;100410.41;3171653;28;20051;-67
2023/03/13 06:33:38;;;;;;;9.63;5.15;;;;;;;6.14;48.39;100420.03;3171661;27;20052;-65
2023/03/13 06:35:10;;;;;;;9.98;5.43;;;;;;;6.54;47.84;100403.81;3171100;28;20056;-71
2023/03/13 06:36:45;;;;;;;16.00;7.72;;;;;;;7.18;47.21;100418.91;3170421;28;20063;-66
2023/03/13 06:38:17;;;;;;;37.60;17.65;;;;;;;7.39;45.96;100400.28;3171615;28;20183;-69
2023/03/13 06:39:49;;;;;;;10.80;6.18;;;;;;;7.53;45.04;100413.78;3171226;28;20043;-68
2023/03/13 06:41:21;;;;;;;14.32;7.35;;;;;;;7.45;44.23;100413.16;3171511;28;20051;-72
2023/03/13 06:42:53;;;;;;;12.32;5.60;;;;;;;7.61;44.32;100408.44;3171238;28;20094;-67
2023/03/13 06:44:26;;;;;;;12.15;5.35;;;;;;;8.07;44.39;100407.31;3158653;28;20142;-67
2023/03/13 06:46:02;;;;;;;9.23;4.72;;;;;;;8.65;43.78;100399.78;3170841;28;20048;-68
2023/03/13 06:47:36;;;;;;;6.97;4.45;;;;;;;9.33;43.18;100403.88;3171195;28;20112;-74
2023/03/13 06:49:07;;;;;;;8.35;4.40;;;;;;;9.99;42.39;100406.97;3171181;28;20050;-68
2023/03/13 06:50:40;;;;;;;10.43;4.60;;;;;;;10.42;40.49;100405.56;3170769;28;20043;-70
2023/03/13 06:52:12;;;;;;;9.50;4.95;;;;;;;10.71;39.90;100386.31;3171039;28;20090;-72
2023/03/13 06:53:44;;;;;;;7.53;4.28;;;;;;;11.20;38.79;100402.72;3171149;28;20055;-72
2023/03/13 06:55:16;;;;;;;7.47;4.32;;;;;;;11.48;37.94;100406.88;3171386;28;20414;-75
2023/03/13 06:56:48;;;;;;;9.15;4.82;;;;;;;11.80;37.80;100408.19;3171235;28;20500;-73
2023/03/13 06:58:19;;;;;;;9.77;4.68;;;;;;;12.12;36.95;100409.50;3170409;28;20063;-72
2023/03/13 06:59:51;;;;;;;8.25;4.57;;;;;;;12.39;36.12;100404.88;3168117;28;20166;-69
2023/03/13 07:01:23;;;;;;;9.48;4.80;;;;;;;12.68;36.13;100402.75;3161268;28;20158;-75
2023/03/13 07:02:57;;;;;;;9.98;4.85;;;;;;;12.72;35.25;100367.75;3161955;28;20052;-72
2023/03/13 07:04:28;;;;;;;9.60;4.93;;;;;;;13.11;34.97;100401.69;3168763;28;20105;-73
2023/03/13 07:06:00;;;;;;;7.88;4.30;;;;;;;13.49;35.15;100398.22;3169739;28;20563;-67
2023/03/13 07:07:32;;;;;;;27.10;11.70;;;;;;;13.71;34.37;100401.50;3170784;28;20055;-67
2023/03/13 07:09:05;;;;;;;12.05;5.90;;;;;;;13.12;33.94;100319.69;3170609;28;20043;-67
2023/03/13 07:10:36;;;;;;;25.27;13.10;;;;;;;13.28;34.22;100387.88;3170615;28;20047;-71
2023/03/13 07:12:09;;;;;;;12.45;5.97;;;;;;;13.17;33.87;100395.31;3170537;28;20108;-70
2023/03/13 07:13:41;;;;;;;12.23;5.47;;;;;;;13.00;34.15;100387.41;3171120;28;20048;-72